createdAt,value
2022-12-26T00:01:25.669Z,98.99
2022-12-26T00:06:29.211Z,98.99
2022-12-26T00:11:31.415Z,99.67
2022-12-26T00:16:33.905Z,99.55
2022-12-26T00:21:36.205Z,99.54
2022-12-26T00:26:38.493Z,98.36
2022-12-26T00:31:40.278Z,100.00
2022-12-26T00:36:42.194Z,98.85
2022-12-26T00:41:43.956Z,98.40
2022-12-26T00:46:45.670Z,98.22
2022-12-26T00:51:47.488Z,98.72
2022-12-26T00:56:49.169Z,99.70
2022-12-26T01:01:51.179Z,99.27
2022-12-26T01:06:53.084Z,98.56
2022-12-26T01:11:54.757Z,98.50
2022-12-26T01:16:56.525Z,98.41
2022-12-26T01:21:58.216Z,97.91
2022-12-26T01:26:59.961Z,97.81
2022-12-26T01:32:01.703Z,98.28
2022-12-26T01:37:03.465Z,98.63
2022-12-26T01:42:19.475Z,97.91
2022-12-26T01:47:23.711Z,98.28
2022-12-26T01:52:34.273Z,97.92
2022-12-26T01:57:40.686Z,98.22
2022-12-26T02:03:02.572Z,97.66
2022-12-26T02:08:17.512Z,98.13
2022-12-26T02:13:20.045Z,97.04
2022-12-26T02:18:21.810Z,97.46
2022-12-26T02:23:23.402Z,97.26
2022-12-26T02:28:43.308Z,96.57
2022-12-26T02:33:53.865Z,96.48
2022-12-26T02:39:44.973Z,97.10
2022-12-26T02:45:16.738Z,96.32
2022-12-26T02:51:03.179Z,97.20
2022-12-26T02:56:37.259Z,96.54
2022-12-26T03:02:03.085Z,96.97
2022-12-26T03:07:33.771Z,96.76
2022-12-26T03:13:06.504Z,97.19
2022-12-26T03:18:11.322Z,96.87
2022-12-26T03:23:16.808Z,96.64
2022-12-26T03:28:18.548Z,96.28
2022-12-26T03:33:57.987Z,96.83
2022-12-26T03:39:47.791Z,96.01
2022-12-26T03:45:16.459Z,97.01
2022-12-26T03:51:06.158Z,96.18
2022-12-26T03:56:37.756Z,96.22
2022-12-26T04:01:58.653Z,96.03
2022-12-26T04:07:56.324Z,96.47
2022-12-26T04:13:22.335Z,95.57
2022-12-26T04:18:53.248Z,95.38
2022-12-26T04:24:15.883Z,95.22
2022-12-26T04:29:36.421Z,95.23
2022-12-26T04:35:26.391Z,96.73
2022-12-26T04:40:53.479Z,95.94
2022-12-26T04:45:56.043Z,95.96
2022-12-26T04:50:57.768Z,96.04
2022-12-26T04:55:59.509Z,96.85
2022-12-26T05:01:21.322Z,96.44
2022-12-26T05:06:42.254Z,96.39
2022-12-26T05:11:47.370Z,96.54
2022-12-26T05:17:07.623Z,96.55
2022-12-26T05:22:29.830Z,95.94
2022-12-26T05:27:59.535Z,95.69
2022-12-26T05:33:20.081Z,95.97
2022-12-26T05:38:21.774Z,95.24
2022-12-26T05:43:23.415Z,95.32
2022-12-26T05:48:25.128Z,96.01
2022-12-26T05:53:27.631Z,94.86
2022-12-26T05:58:29.333Z,95.21
2022-12-26T06:03:31.016Z,95.80
2022-12-26T06:08:33.012Z,95.98
2022-12-26T06:13:35.480Z,95.87
2022-12-26T06:18:37.711Z,95.76
2022-12-26T06:23:40.303Z,94.88
2022-12-26T06:28:43.392Z,94.99
2022-12-26T06:33:45.060Z,93.89
2022-12-26T06:38:49.681Z,94.95
2022-12-26T06:43:52.090Z,94.93
2022-12-26T06:48:54.328Z,94.89
2022-12-26T06:53:56.218Z,95.96
2022-12-26T06:59:01.193Z,94.08
2022-12-26T07:04:04.434Z,94.52
2022-12-26T07:09:14.445Z,94.50
2022-12-26T07:14:17.195Z,95.29
2022-12-26T07:19:18.966Z,96.02
2022-12-26T07:24:22.560Z,95.42
2022-12-26T07:29:24.484Z,95.40
2022-12-26T07:34:31.370Z,95.64
2022-12-26T07:39:33.802Z,95.79
2022-12-26T07:44:35.595Z,96.15
2022-12-26T07:49:37.495Z,96.47
2022-12-26T07:54:42.072Z,97.30
2022-12-26T07:59:43.937Z,96.75
2022-12-26T08:04:46.827Z,97.22
2022-12-26T08:09:48.751Z,98.28
2022-12-26T08:14:51.194Z,96.60
2022-12-26T08:19:53.059Z,97.30
2022-12-26T08:24:54.816Z,98.27
2022-12-26T08:29:57.034Z,98.59
2022-12-26T08:34:58.747Z,98.16
2022-12-26T08:40:00.529Z,97.75
2022-12-26T08:45:02.832Z,98.79
2022-12-26T08:50:04.994Z,98.87
2022-12-26T08:55:07.084Z,99.58
2022-12-26T09:00:09.691Z,100.00
2022-12-26T09:05:11.452Z,100.00
2022-12-26T09:10:13.325Z,99.80
2022-12-26T09:15:15.081Z,100.00
2022-12-26T09:20:17.121Z,100.00
2022-12-26T09:25:21.184Z,100.00
2022-12-26T09:30:23.524Z,100.00
2022-12-26T09:35:25.243Z,100.00
2022-12-26T09:40:32.724Z,100.00
2022-12-26T09:45:52.139Z,100.00
2022-12-26T09:50:54.237Z,100.00
2022-12-26T09:55:57.322Z,100.00
2022-12-26T10:01:14.073Z,100.00
2022-12-26T10:06:21.388Z,100.00
2022-12-26T10:12:12.646Z,100.00
2022-12-26T10:17:50.452Z,100.00
2022-12-26T10:23:12.206Z,100.00
2022-12-26T10:28:40.411Z,100.00
2022-12-26T10:33:56.295Z,100.00
2022-12-26T10:38:59.849Z,100.00
2022-12-26T10:44:01.750Z,99.16
2022-12-26T10:49:03.743Z,99.65
2022-12-26T10:54:18.034Z,99.63
2022-12-26T10:59:44.777Z,98.69
2022-12-26T11:05:32.742Z,97.84
2022-12-26T11:10:35.126Z,99.84
2022-12-26T11:15:49.201Z,100.00
2022-12-26T11:20:51.190Z,100.00
2022-12-26T11:25:56.002Z,98.90
2022-12-26T11:30:59.007Z,97.22
2022-12-26T11:36:12.042Z,98.53
2022-12-26T11:41:44.161Z,96.22
2022-12-26T11:46:51.354Z,99.00
2022-12-26T11:51:59.347Z,98.01
2022-12-26T11:57:16.857Z,96.99
2022-12-26T12:02:28.965Z,96.33
2022-12-26T12:07:55.653Z,92.90
2022-12-26T12:13:29.274Z,97.75
2022-12-26T12:18:43.199Z,98.45
2022-12-26T12:23:57.125Z,97.50
2022-12-26T12:29:16.794Z,98.33
2022-12-26T12:34:55.795Z,98.99
2022-12-26T12:40:19.180Z,99.63
2022-12-26T12:45:30.957Z,100.00
2022-12-26T12:50:45.823Z,100.00
2022-12-26T12:55:47.416Z,100.00
2022-12-26T13:00:56.801Z,100.00
2022-12-26T13:06:08.883Z,100.00
2022-12-26T13:11:16.376Z,100.00
2022-12-26T13:16:32.394Z,100.00
2022-12-26T13:21:40.746Z,100.00
2022-12-26T13:26:47.137Z,100.00
2022-12-26T13:31:48.931Z,100.00
2022-12-26T13:36:59.022Z,100.00
2022-12-26T13:42:34.507Z,100.00
2022-12-26T13:47:38.504Z,100.00
2022-12-26T13:52:40.732Z,100.00
2022-12-26T13:57:45.131Z,100.00
2022-12-26T14:03:19.604Z,100.00
2022-12-26T14:08:43.405Z,100.00
2022-12-26T14:14:15.277Z,100.00
2022-12-26T14:19:54.541Z,100.00
2022-12-26T14:25:19.416Z,100.00
2022-12-26T14:30:52.935Z,100.00
2022-12-26T14:36:16.410Z,100.00
2022-12-26T14:41:38.680Z,100.00
2022-12-26T14:46:40.903Z,100.00
2022-12-26T14:51:42.870Z,100.00
2022-12-26T14:56:44.813Z,100.00
2022-12-26T15:01:59.605Z,100.00
2022-12-26T15:07:07.580Z,100.00
2022-12-26T15:12:34.135Z,100.00
2022-12-26T15:17:54.289Z,100.00
2022-12-26T15:22:58.609Z,100.00
2022-12-26T15:28:32.240Z,100.00
2022-12-26T15:33:47.043Z,100.00
2022-12-26T15:38:57.627Z,100.00
2022-12-26T15:44:05.388Z,100.00
2022-12-26T15:49:22.339Z,100.00
2022-12-26T15:54:39.205Z,100.00
2022-12-26T15:59:47.796Z,100.00
2022-12-26T16:04:54.208Z,100.00
2022-12-26T16:09:57.225Z,100.00
2022-12-26T16:15:25.294Z,100.00
2022-12-26T16:20:51.619Z,100.00
2022-12-26T16:25:55.829Z,100.00
2022-12-26T16:30:58.621Z,100.00
2022-12-26T16:36:01.231Z,100.00
2022-12-26T16:41:18.232Z,100.00
2022-12-26T16:46:24.992Z,100.00
2022-12-26T16:51:39.543Z,100.00
2022-12-26T16:56:41.857Z,100.00
2022-12-26T17:01:49.334Z,100.00
2022-12-26T17:06:59.420Z,100.00
2022-12-26T17:12:03.866Z,100.00
2022-12-26T17:17:23.668Z,100.00
2022-12-26T17:22:34.331Z,100.00
2022-12-26T17:27:36.142Z,100.00
2022-12-26T17:32:44.731Z,100.00
2022-12-26T17:37:50.339Z,100.00
2022-12-26T17:43:05.197Z,100.00
2022-12-26T17:48:07.689Z,100.00
2022-12-26T17:53:31.467Z,100.00
2022-12-26T17:58:34.678Z,100.00
2022-12-26T18:03:36.674Z,100.00
2022-12-26T18:08:40.667Z,100.00
2022-12-26T18:13:43.359Z,100.00
2022-12-26T18:18:46.942Z,100.00
2022-12-26T18:23:48.986Z,100.00
2022-12-26T18:28:58.322Z,100.00
2022-12-26T18:34:00.112Z,100.00
2022-12-26T18:39:02.101Z,100.00
2022-12-26T18:44:05.003Z,100.00
2022-12-26T18:49:06.828Z,100.00
2022-12-26T18:54:08.518Z,100.00
2022-12-26T18:59:11.508Z,100.00
2022-12-26T19:04:17.000Z,100.00
2022-12-26T19:09:18.979Z,100.00
2022-12-26T19:14:22.065Z,100.00
2022-12-26T19:19:26.726Z,100.00
2022-12-26T19:24:28.657Z,100.00
2022-12-26T19:29:30.436Z,100.00
2022-12-26T19:34:32.733Z,100.00
2022-12-26T19:39:34.914Z,100.00
2022-12-26T19:44:36.671Z,100.00
2022-12-26T19:49:38.559Z,100.00
2022-12-26T19:54:40.280Z,100.00
2022-12-26T19:59:42.074Z,100.00
2022-12-26T20:04:44.743Z,100.00
2022-12-26T20:09:46.489Z,100.00
2022-12-26T20:14:49.384Z,100.00
2022-12-26T20:19:52.322Z,100.00
2022-12-26T20:24:54.240Z,100.00
2022-12-26T20:29:56.055Z,100.00
2022-12-26T20:34:57.800Z,100.00
2022-12-26T20:40:01.300Z,100.00
2022-12-26T20:45:03.412Z,100.00
2022-12-26T20:50:05.922Z,100.00
2022-12-26T20:55:08.127Z,100.00
2022-12-26T21:00:10.626Z,100.00
2022-12-26T21:05:12.451Z,100.00
2022-12-26T21:10:14.641Z,100.00
2022-12-26T21:15:16.475Z,100.00
2022-12-26T21:20:18.217Z,100.00
2022-12-26T21:25:20.433Z,100.00
2022-12-26T21:30:22.168Z,100.00
2022-12-26T21:35:23.898Z,100.00
2022-12-26T21:40:27.714Z,100.00
2022-12-26T21:45:29.503Z,100.00
2022-12-26T21:50:31.227Z,100.00
2022-12-26T21:55:36.478Z,100.00
2022-12-26T22:00:38.456Z,100.00
2022-12-26T22:05:41.696Z,100.00
2022-12-26T22:11:04.563Z,100.00
2022-12-26T22:16:09.275Z,100.00
2022-12-26T22:21:16.688Z,100.00
2022-12-26T22:26:20.480Z,100.00
2022-12-26T22:31:25.864Z,100.00
2022-12-26T22:36:28.861Z,100.00
2022-12-26T22:41:30.606Z,100.00
2022-12-26T22:46:32.363Z,100.00
2022-12-26T22:51:34.082Z,100.00
2022-12-26T22:56:35.766Z,100.00
2022-12-26T23:01:37.983Z,100.00
2022-12-26T23:06:41.521Z,100.00
2022-12-26T23:12:03.780Z,100.00
2022-12-26T23:17:08.474Z,100.00
2022-12-26T23:22:10.549Z,100.00
2022-12-26T23:27:30.360Z,100.00
2022-12-26T23:32:32.374Z,100.00
2022-12-26T23:37:34.078Z,100.00
2022-12-26T23:42:36.050Z,100.00
2022-12-26T23:47:39.252Z,100.00
2022-12-26T23:52:41.602Z,100.00
2022-12-26T23:57:43.299Z,100.00
